Time;durP1;ratioP1;P1;durP2;ratioP2;P2;SDS_P1;SDS_P2;PMS_P1;PMS_P2;Temp;Humidity;BMP_temperature;BMP_pressure;BME280_temperature;BME280_humidity;BME280_pressure;Samples;Min_cycle;Max_cycle;Signal;HPM_P1;HPM_P2
2022/02/22 00:01:07;;;;;;;6.63;3.20;;;;;;;6.08;100.00;99477.75;4989438;28;21085;-83
2022/02/22 00:03:36;;;;;;;12.18;4.25;;;;;;;6.09;100.00;99484.00;4977881;28;20226;-84
2022/02/22 00:06:03;;;;;;;11.23;4.75;;;;;;;5.98;100.00;99487.09;4958006;29;20208;-83
2022/02/22 00:08:29;;;;;;;14.10;4.30;;;;;;;5.93;100.00;99489.94;4963222;28;20326;-83
2022/02/22 00:10:57;;;;;;;9.00;4.82;;;;;;;5.91;100.00;99497.13;4976803;28;20280;-83
2022/02/22 00:13:25;;;;;;;11.75;4.30;;;;;;;5.99;100.00;99508.44;4977530;28;20191;-83
2022/02/22 00:15:52;;;;;;;10.10;3.90;;;;;;;5.99;100.00;99497.75;4987114;28;20223;-83
2022/02/22 00:18:19;;;;;;;6.10;3.95;;;;;;;6.02;100.00;99489.59;4978942;28;20284;-83
2022/02/22 00:20:46;;;;;;;10.15;4.05;;;;;;;5.99;100.00;99505.75;4982396;28;20196;-83
2022/02/22 00:23:13;;;;;;;6.45;4.28;;;;;;;5.98;100.00;99504.00;4979734;28;20271;-83
2022/02/22 00:25:40;;;;;;;7.10;4.07;;;;;;;5.98;100.00;99512.00;4987860;28;20238;-81
2022/02/22 00:28:08;;;;;;;6.40;4.15;;;;;;;6.00;100.00;99528.00;4995048;28;20616;-81
2022/02/22 00:30:35;;;;;;;7.45;4.20;;;;;;;6.05;100.00;99534.88;4985618;28;20258;-81
2022/02/22 00:33:01;;;;;;;9.50;3.70;;;;;;;5.98;100.00;99529.88;4990760;28;20284;-81
2022/02/22 00:35:28;;;;;;;9.43;3.20;;;;;;;5.99;100.00;99527.13;4994650;28;20309;-81
2022/02/22 00:37:55;;;;;;;8.50;3.47;;;;;;;5.95;100.00;99530.00;4990075;28;20195;-81
2022/02/22 00:40:22;;;;;;;6.35;4.10;;;;;;;5.87;100.00;99538.28;4967221;28;20797;-82
2022/02/22 00:42:48;;;;;;;6.60;3.97;;;;;;;5.81;100.00;99535.84;4973869;28;20269;-80
2022/02/22 00:45:16;;;;;;;5.97;4.35;;;;;;;5.74;100.00;99542.34;4974592;28;20337;-82
2022/02/22 00:47:43;;;;;;;10.48;3.20;;;;;;;5.73;100.00;99559.34;4974606;28;20227;-81
2022/02/22 00:50:10;;;;;;;6.95;2.90;;;;;;;5.69;100.00;99563.91;4974231;28;20213;-81
2022/02/22 00:52:37;;;;;;;7.82;4.35;;;;;;;5.71;100.00;99558.50;4974465;28;20202;-82
2022/02/22 00:55:04;;;;;;;8.68;4.05;;;;;;;5.64;100.00;99564.09;4974386;28;20261;-82
2022/02/22 00:57:31;;;;;;;5.13;2.80;;;;;;;5.66;100.00;99582.75;4974310;28;20204;-81
2022/02/22 00:59:58;;;;;;;7.75;3.33;;;;;;;5.76;100.00;99583.25;4974187;28;20196;-82
2022/02/22 01:02:26;;;;;;;9.23;3.42;;;;;;;5.71;100.00;99582.56;4974441;28;20605;-83
2022/02/22 01:04:52;;;;;;;7.05;3.10;;;;;;;5.69;100.00;99581.75;4974698;28;20194;-83
2022/02/22 01:07:20;;;;;;;9.13;3.50;;;;;;;5.61;100.00;99580.25;4974541;28;20191;-82
2022/02/22 01:09:48;;;;;;;8.85;3.25;;;;;;;5.65;100.00;99578.31;4974050;28;20702;-83
2022/02/22 01:12:16;;;;;;;8.35;4.35;;;;;;;5.66;100.00;99584.53;4974532;28;20617;-82
2022/02/22 01:14:44;;;;;;;9.57;3.30;;;;;;;5.68;100.00;99593.38;4973392;28;20279;-82
2022/02/22 01:17:11;;;;;;;7.78;3.42;;;;;;;5.79;100.00;99597.38;4974318;28;20768;-83
2022/02/22 01:19:39;;;;;;;6.13;3.40;;;;;;;5.72;100.00;99597.66;4973685;28;20550;-83
2022/02/22 01:22:06;;;;;;;8.27;2.97;;;;;;;5.68;100.00;99610.28;4974188;28;20289;-83
2022/02/22 01:24:33;;;;;;;7.75;3.65;;;;;;;5.63;100.00;99607.78;4974273;28;20535;-82
2022/02/22 01:27:00;;;;;;;6.15;3.20;;;;;;;5.61;100.00;99604.28;4974273;28;20191;-83
2022/02/22 01:29:27;;;;;;;8.07;3.47;;;;;;;5.58;100.00;99616.88;4973806;28;20287;-83
2022/02/22 01:31:54;;;;;;;7.25;3.30;;;;;;;5.56;100.00;99619.63;4973938;28;20530;-83
2022/02/22 01:34:21;;;;;;;5.60;3.08;;;;;;;5.61;100.00;99622.13;4974160;28;20195;-83
2022/02/22 01:36:49;;;;;;;6.93;3.10;;;;;;;5.63;100.00;99618.47;4973512;28;20267;-83
2022/02/22 01:39:16;;;;;;;6.47;3.30;;;;;;;5.68;100.00;99633.44;4974928;28;20395;-82
2022/02/22 01:41:44;;;;;;;6.07;3.42;;;;;;;5.70;100.00;99635.13;4975556;28;20278;-82
2022/02/22 01:44:11;;;;;;;6.15;3.50;;;;;;;5.65;100.00;99637.06;4973888;28;20191;-83
2022/02/22 01:46:38;;;;;;;5.82;3.13;;;;;;;5.67;100.00;99639.69;4974029;28;20207;-82
2022/02/22 01:49:05;;;;;;;5.80;3.22;;;;;;;5.75;100.00;99640.28;4973743;28;20630;-83
2022/02/22 01:51:32;;;;;;;5.50;2.97;;;;;;;5.75;100.00;99645.63;4981961;28;20186;-83
2022/02/22 01:54:00;;;;;;;4.40;2.97;;;;;;;5.76;100.00;99650.03;4973732;28;20202;-82
2022/02/22 01:56:27;;;;;;;6.20;2.85;;;;;;;5.77;100.00;99643.78;4974098;28;20226;-83
2022/02/22 01:58:53;;;;;;;4.10;2.70;;;;;;;5.79;100.00;99648.13;4973766;28;20601;-83
2022/02/22 02:01:20;;;;;;;5.18;3.25;;;;;;;5.78;100.00;99650.84;4976990;28;20287;-83
2022/02/22 02:03:49;;;;;;;7.18;3.65;;;;;;;5.70;100.00;99652.94;4972182;28;20196;-83
2022/02/22 02:06:18;;;;;;;6.68;2.92;;;;;;;5.69;100.00;99657.41;4981359;28;20202;-83
2022/02/22 02:08:45;;;;;;;8.00;3.80;;;;;;;5.68;100.00;99647.66;4973858;28;20621;-82
2022/02/22 02:11:13;;;;;;;5.50;2.88;;;;;;;5.66;100.00;99654.00;4973213;28;20603;-82
2022/02/22 02:13:39;;;;;;;8.23;3.55;;;;;;;5.62;100.00;99643.41;4974889;28;20624;-83
2022/02/22 02:16:07;;;;;;;3.70;2.85;;;;;;;5.63;100.00;99658.53;4987773;28;20278;-83
2022/02/22 02:18:33;;;;;;;5.20;3.47;;;;;;;5.64;100.00;99657.59;4973627;28;20207;-83
2022/02/22 02:21:01;;;;;;;4.32;2.92;;;;;;;5.63;100.00;99658.53;4968154;28;20274;-84
2022/02/22 02:23:29;;;;;;;5.50;3.55;;;;;;;5.60;100.00;99663.09;4978403;28;20208;-83
2022/02/22 02:25:55;;;;;;;5.13;3.75;;;;;;;5.63;100.00;99669.22;4976897;28;20191;-83
2022/02/22 02:28:22;;;;;;;5.35;3.45;;;;;;;5.60;100.00;99669.31;4991225;28;20285;-84
2022/02/22 02:30:49;;;;;;;8.52;4.22;;;;;;;5.61;100.00;99670.19;5063631;23;20319;-83
2022/02/22 02:33:16;;;;;;;8.13;3.22;;;;;;;5.52;100.00;99670.53;4953546;29;20542;-82
2022/02/22 02:35:43;;;;;;;5.90;3.35;;;;;;;5.47;100.00;99678.69;4953396;29;20289;-83
2022/02/22 02:38:10;;;;;;;8.90;3.38;;;;;;;5.49;100.00;99682.16;4953614;29;20193;-83
2022/02/22 02:40:38;;;;;;;6.10;3.40;;;;;;;5.50;100.00;99670.59;4953515;29;20319;-83
2022/02/22 02:43:05;;;;;;;6.30;3.05;;;;;;;5.68;100.00;99677.06;4953569;29;20634;-83
2022/02/22 02:45:31;;;;;;;11.60;3.90;;;;;;;5.58;100.00;99671.16;4953600;29;20627;-84
2022/02/22 02:47:58;;;;;;;8.77;3.70;;;;;;;5.61;100.00;99671.06;4953581;29;20208;-84
2022/02/22 02:50:25;;;;;;;9.63;4.00;;;;;;;5.61;100.00;99679.06;4952994;29;20280;-84
2022/02/22 02:52:52;;;;;;;7.55;3.05;;;;;;;5.69;100.00;99683.25;4953431;29;20243;-83
2022/02/22 02:55:18;;;;;;;6.03;3.63;;;;;;;5.58;100.00;99679.16;4953098;29;20236;-84
2022/02/22 02:57:46;;;;;;;8.80;3.80;;;;;;;5.47;100.00;99691.16;4953169;29;20306;-84
2022/02/22 03:00:14;;;;;;;6.15;3.72;;;;;;;5.56;100.00;99698.84;4953090;29;20304;-84
2022/02/22 03:02:40;;;;;;;9.13;3.92;;;;;;;5.50;100.00;99705.31;4953275;29;20188;-84
2022/02/22 03:05:09;;;;;;;6.80;3.33;;;;;;;5.42;100.00;99707.38;4953014;29;20284;-83
2022/02/22 03:07:35;;;;;;;10.13;4.00;;;;;;;5.40;100.00;99714.56;4952955;29;20200;-84
2022/02/22 03:10:02;;;;;;;7.13;3.60;;;;;;;5.42;100.00;99712.69;4952951;29;20199;-84
2022/02/22 03:12:29;;;;;;;8.07;6.30;;;;;;;5.42;100.00;99710.91;4952913;29;20200;-83
2022/02/22 03:14:57;;;;;;;6.93;3.63;;;;;;;5.45;100.00;99712.63;4953185;29;20213;-83
2022/02/22 03:17:23;;;;;;;7.30;3.88;;;;;;;5.38;100.00;99727.09;4953115;29;20218;-83
2022/02/22 03:19:50;;;;;;;9.63;4.72;;;;;;;5.36;100.00;99726.25;4953095;29;20193;-84
2022/02/22 03:22:16;;;;;;;8.23;4.10;;;;;;;5.28;100.00;99715.00;4952935;28;20202;-83
2022/02/22 03:24:43;;;;;;;6.43;4.05;;;;;;;5.27;100.00;99719.47;4956290;29;20196;-83
2022/02/22 03:27:10;;;;;;;8.05;4.10;;;;;;;5.21;100.00;99731.22;4956415;29;20714;-83
2022/02/22 03:29:36;;;;;;;6.35;3.75;;;;;;;5.19;100.00;99727.72;4956144;29;20288;-83
2022/02/22 03:32:05;;;;;;;9.02;4.65;;;;;;;5.25;100.00;99739.13;4972684;28;20269;-84
2022/02/22 03:34:32;;;;;;;12.18;4.97;;;;;;;5.25;100.00;99732.00;4975798;28;20189;-84
2022/02/22 03:36:58;;;;;;;9.63;4.50;;;;;;;5.31;100.00;99737.09;4975578;28;20757;-84
2022/02/22 03:39:25;;;;;;;10.70;4.60;;;;;;;5.28;100.00;99747.03;4975423;28;20191;-84
2022/02/22 03:41:51;;;;;;;7.00;3.55;;;;;;;5.16;100.00;99743.84;4975436;28;20270;-84
2022/02/22 03:44:18;;;;;;;7.65;4.10;;;;;;;5.08;100.00;99750.38;4975526;28;20588;-84
2022/02/22 03:46:45;;;;;;;8.68;4.45;;;;;;;5.16;100.00;99749.19;4975327;28;20694;-84
2022/02/22 03:49:13;;;;;;;12.02;4.97;;;;;;;5.21;100.00;99752.56;4975547;28;20582;-84
2022/02/22 03:51:40;;;;;;;12.23;4.65;;;;;;;5.19;100.00;99757.09;4975501;28;20639;-84
2022/02/22 03:54:06;;;;;;;6.50;4.78;;;;;;;5.10;100.00;99760.06;4975374;28;20236;-83
2022/02/22 03:56:33;;;;;;;13.02;4.28;;;;;;;5.13;100.00;99761.75;4975344;28;20208;-84
2022/02/22 03:59:00;;;;;;;7.72;4.18;;;;;;;5.22;100.00;99753.44;4974825;28;20295;-83
2022/02/22 04:01:26;;;;;;;13.25;4.63;;;;;;;5.11;100.00;99761.81;4975306;28;20220;-84
2022/02/22 04:03:53;;;;;;;9.88;5.20;;;;;;;5.04;100.00;99768.25;4974876;28;20199;-84
2022/02/22 04:06:21;;;;;;;10.25;3.75;;;;;;;5.08;100.00;99777.06;4975280;28;20642;-83
2022/02/22 04:08:47;;;;;;;11.07;4.25;;;;;;;5.02;100.00;99775.47;4975134;28;20539;-84
2022/02/22 04:11:16;;;;;;;7.15;3.63;;;;;;;4.90;100.00;99774.06;4974888;28;20184;-83
2022/02/22 04:13:42;;;;;;;8.75;4.35;;;;;;;4.84;100.00;99778.72;4975118;28;20236;-84
2022/02/22 04:16:12;;;;;;;6.75;4.25;;;;;;;4.86;100.00;99787.53;4975074;28;20282;-84
2022/02/22 04:18:38;;;;;;;8.60;3.85;;;;;;;4.77;100.00;99792.25;4975021;28;20217;-83
2022/02/22 04:21:05;;;;;;;7.43;4.25;;;;;;;4.71;100.00;99795.13;4974962;28;20676;-83
2022/02/22 04:23:33;;;;;;;8.52;3.95;;;;;;;4.68;100.00;99810.31;4975054;28;20205;-83
2022/02/22 04:26:00;;;;;;;8.40;4.80;;;;;;;4.74;100.00;99805.69;4974864;28;20656;-84
2022/02/22 04:28:26;;;;;;;6.60;4.10;;;;;;;4.75;100.00;99806.56;4974507;28;20295;-84
2022/02/22 04:30:53;;;;;;;9.57;4.05;;;;;;;4.83;100.00;99814.31;4974477;28;20325;-84
2022/02/22 04:33:19;;;;;;;9.50;4.35;;;;;;;4.75;100.00;99814.56;4974897;28;20649;-84
2022/02/22 04:35:46;;;;;;;7.10;3.80;;;;;;;4.88;100.00;99825.72;4974159;28;20273;-84
2022/02/22 04:38:13;;;;;;;11.60;4.22;;;;;;;4.86;100.00;99827.56;4974369;28;20682;-84
2022/02/22 04:40:41;;;;;;;10.90;4.80;;;;;;;4.71;100.00;99823.59;4974334;28;20644;-84
2022/02/22 04:43:07;;;;;;;11.30;4.22;;;;;;;4.86;100.00;99839.13;4974575;28;20554;-84
2022/02/22 04:45:34;;;;;;;9.38;3.60;;;;;;;4.72;100.00;99850.19;4974262;28;20218;-84
2022/02/22 04:48:00;;;;;;;6.78;3.58;;;;;;;4.64;100.00;99846.03;4974115;28;20218;-84
2022/02/22 04:50:27;;;;;;;10.88;3.85;;;;;;;4.62;100.00;99848.75;4974112;28;20270;-84
2022/02/22 04:52:54;;;;;;;11.75;4.85;;;;;;;4.78;100.00;99851.81;4974485;28;20687;-84
2022/02/22 04:55:20;;;;;;;10.13;5.63;;;;;;;4.85;100.00;99852.50;4974302;28;20203;-84
2022/02/22 04:57:48;;;;;;;6.90;3.90;;;;;;;4.79;100.00;99846.44;4973997;28;20217;-84
2022/02/22 05:00:17;;;;;;;12.27;3.63;;;;;;;4.73;100.00;99856.44;4974268;28;20202;-84
2022/02/22 05:02:44;;;;;;;8.40;3.55;;;;;;;4.75;100.00;99858.13;4974712;28;20188;-84
2022/02/22 05:05:11;;;;;;;12.65;4.97;;;;;;;4.82;100.00;99853.47;4974169;28;20193;-84
2022/02/22 05:07:37;;;;;;;11.25;5.63;;;;;;;4.78;100.00;99849.16;4974009;28;20535;-84
2022/02/22 05:10:05;;;;;;;12.25;5.35;;;;;;;4.80;100.00;99858.00;4973926;28;20203;-84
2022/02/22 05:12:32;;;;;;;9.70;4.13;;;;;;;4.57;100.00;99856.00;4973980;28;20227;-84
2022/02/22 05:15:00;;;;;;;13.00;5.40;;;;;;;4.37;100.00;99860.13;4974011;28;20194;-84
2022/02/22 05:17:26;;;;;;;10.98;5.40;;;;;;;4.50;100.00;99862.41;4973409;28;20230;-84
2022/02/22 05:19:53;;;;;;;11.77;5.38;;;;;;;4.34;100.00;99854.88;4973581;28;20283;-83
2022/02/22 05:22:19;;;;;;;10.88;5.38;;;;;;;4.29;100.00;99861.25;4973429;28;20286;-83
2022/02/22 05:24:46;;;;;;;10.02;5.60;;;;;;;4.14;100.00;99870.56;4973590;28;20695;-84
2022/02/22 05:27:13;;;;;;;10.73;5.90;;;;;;;4.32;100.00;99870.06;4973430;28;20275;-84
2022/02/22 05:29:39;;;;;;;11.98;5.43;;;;;;;4.32;100.00;99869.16;4973394;28;20631;-84
2022/02/22 05:32:08;;;;;;;16.25;5.55;;;;;;;4.34;100.00;99870.88;4973085;28;20234;-84
2022/02/22 05:34:35;;;;;;;8.25;4.20;;;;;;;4.51;100.00;99864.19;4973486;28;20503;-84
2022/02/22 05:37:03;;;;;;;6.75;4.43;;;;;;;4.53;100.00;99863.22;4973125;28;20188;-84
2022/02/22 05:39:30;;;;;;;10.80;5.30;;;;;;;4.31;100.00;99864.75;4972959;28;20317;-84
2022/02/22 05:41:57;;;;;;;6.88;4.82;;;;;;;4.31;100.00;99860.28;4973466;28;20573;-84
2022/02/22 05:44:23;;;;;;;12.27;6.57;;;;;;;4.48;100.00;99861.63;4973108;28;20217;-84
2022/02/22 05:46:50;;;;;;;8.80;5.68;;;;;;;4.34;100.00;99864.66;4972435;28;20291;-84
2022/02/22 05:49:18;;;;;;;12.45;5.68;;;;;;;4.07;100.00;99876.94;4973040;28;20197;-84
2022/02/22 05:51:44;;;;;;;11.98;5.10;;;;;;;4.00;100.00;99880.69;4973498;28;20211;-84
2022/02/22 05:54:11;;;;;;;9.27;5.35;;;;;;;4.01;100.00;99887.81;4958262;28;20536;-83
2022/02/22 05:56:38;;;;;;;11.18;5.22;;;;;;;3.92;100.00;99886.25;4954153;29;20202;-83
2022/02/22 05:59:04;;;;;;;8.23;5.20;;;;;;;3.96;100.00;99877.28;4957285;28;20699;-83
2022/02/22 06:01:33;;;;;;;8.10;5.50;;;;;;;4.14;100.00;99876.75;4972685;28;20289;-83
2022/02/22 06:04:00;;;;;;;13.70;7.13;;;;;;;4.38;100.00;99888.50;4973197;28;20192;-84
2022/02/22 06:06:28;;;;;;;7.97;5.60;;;;;;;4.41;100.00;99894.69;4968937;28;20200;-84
2022/02/22 06:08:55;;;;;;;10.95;4.90;;;;;;;4.30;100.00;99895.88;4972686;28;20194;-84
2022/02/22 06:11:21;;;;;;;12.25;5.93;;;;;;;4.20;100.00;99893.50;4973646;28;20628;-87
2022/02/22 06:13:48;;;;;;;10.40;5.90;;;;;;;4.34;100.00;99894.88;4975273;28;20246;-86
2022/02/22 06:16:15;;;;;;;11.35;4.60;;;;;;;4.39;100.00;99892.09;4975985;28;20567;-87
2022/02/22 06:18:42;;;;;;;10.27;7.25;;;;;;;4.58;100.00;99898.63;4974366;28;20251;-87
2022/02/22 06:21:08;;;;;;;17.42;6.40;;;;;;;4.62;100.00;99904.75;4975101;28;20275;-87
2022/02/22 06:23:36;;;;;;;8.90;5.63;;;;;;;4.67;100.00;99916.16;4974205;28;20199;-87
2022/02/22 06:26:09;;;;;;;14.50;7.93;;;;;;;4.65;100.00;99926.00;4972746;28;20214;-88
2022/02/22 06:28:36;;;;;;;11.05;6.88;;;;;;;4.69;100.00;99930.31;4973146;28;20192;-84
2022/02/22 06:31:03;;;;;;;11.82;7.65;;;;;;;4.93;100.00;99933.19;4972524;28;20231;-84
2022/02/22 06:33:31;;;;;;;7.95;4.22;;;;;;;5.09;100.00;99934.50;4972720;28;20756;-83
2022/02/22 06:35:58;;;;;;;9.60;5.18;;;;;;;5.43;100.00;99939.66;4972877;28;20536;-82
2022/02/22 06:38:25;;;;;;;10.82;4.53;;;;;;;5.51;100.00;99936.72;4969215;28;20208;-82
2022/02/22 06:40:53;;;;;;;10.05;4.10;;;;;;;5.76;100.00;99951.97;4934964;29;20201;-82
2022/02/22 06:43:20;;;;;;;12.52;3.55;;;;;;;5.61;100.00;99951.56;4965422;28;20284;-81
2022/02/22 06:45:47;;;;;;;10.95;3.88;;;;;;;5.64;100.00;99959.47;4950876;28;20521;-82
2022/02/22 06:48:14;;;;;;;7.05;3.30;;;;;;;5.70;100.00;99958.41;4934389;29;20206;-84
2022/02/22 06:50:41;;;;;;;7.75;3.55;;;;;;;5.78;100.00;99964.34;4934574;29;20190;-82
2022/02/22 06:53:08;;;;;;;7.55;3.38;;;;;;;5.82;100.00;99973.16;4934464;29;20655;-82
2022/02/22 06:55:35;;;;;;;9.60;4.20;;;;;;;5.98;100.00;99968.22;4934322;29;20528;-82
2022/02/22 06:58:06;;;;;;;8.55;4.13;;;;;;;6.02;100.00;99970.72;4945398;29;20259;-83
2022/02/22 07:00:33;;;;;;;11.15;4.18;;;;;;;5.90;100.00;99965.78;4952492;29;20284;-83
2022/02/22 07:03:00;;;;;;;11.70;4.70;;;;;;;5.85;100.00;99971.25;4938142;29;20217;-84
2022/02/22 07:05:27;;;;;;;10.77;4.68;;;;;;;6.03;100.00;99968.91;4943948;29;20192;-82
2022/02/22 07:07:55;;;;;;;12.63;4.32;;;;;;;5.87;100.00;99983.69;4956739;28;20276;-82
2022/02/22 07:10:22;;;;;;;19.52;5.15;;;;;;;5.86;100.00;99988.16;4957078;28;20701;-82
2022/02/22 07:12:48;;;;;;;8.90;4.10;;;;;;;5.96;100.00;99986.97;4956636;28;20211;-82
2022/02/22 07:15:16;;;;;;;9.88;4.30;;;;;;;5.99;100.00;99991.31;4956835;28;20215;-83
2022/02/22 07:17:47;;;;;;;10.77;4.45;;;;;;;5.94;100.00;99999.50;4956569;28;20215;-85
2022/02/22 07:20:15;;;;;;;11.55;4.20;;;;;;;5.95;100.00;99998.59;4955956;29;20232;-85
2022/02/22 07:22:42;;;;;;;12.50;4.50;;;;;;;6.23;100.00;99998.53;4956489;29;20196;-85
2022/02/22 07:25:18;;;;;;;12.98;4.95;;;;;;;6.21;100.00;100004.88;4957007;29;20211;-81
2022/02/22 07:27:45;;;;;;;15.65;4.70;;;;;;;6.03;100.00;100007.22;4956906;29;20272;-85
2022/02/22 07:30:14;;;;;;;13.07;4.28;;;;;;;6.23;100.00;100003.00;4959892;28;20201;-81
2022/02/22 07:32:42;;;;;;;14.32;5.10;;;;;;;6.24;100.00;100002.97;4994805;28;20195;-81
2022/02/22 07:35:11;;;;;;;8.63;4.50;;;;;;;6.25;100.00;100014.53;4993028;28;20310;-83
2022/02/22 07:37:38;;;;;;;15.23;5.35;;;;;;;6.37;100.00;100008.75;4975963;28;20188;-80
2022/02/22 07:40:06;;;;;;;16.15;5.20;;;;;;;6.50;100.00;100011.03;4974552;28;21756;-81
2022/02/22 07:42:33;;;;;;;21.48;6.28;;;;;;;6.50;100.00;100003.88;4975286;28;20275;-83
2022/02/22 07:45:00;;;;;;;18.52;6.43;;;;;;;6.34;100.00;100016.91;4975353;28;20283;-82
2022/02/22 07:47:26;;;;;;;17.35;5.47;;;;;;;6.36;100.00;100020.41;4975490;28;20565;-82
2022/02/22 07:49:55;;;;;;;20.38;5.93;;;;;;;6.52;100.00;100014.53;4978389;28;20223;-81
2022/02/22 07:52:21;;;;;;;16.15;5.60;;;;;;;6.58;100.00;100014.28;4994506;28;20274;-81
2022/02/22 07:54:48;;;;;;;18.83;6.13;;;;;;;6.58;100.00;100017.84;4994216;28;20205;-81
2022/02/22 07:57:14;;;;;;;12.57;5.50;;;;;;;6.60;100.00;100009.75;4994147;28;20183;-82
2022/02/22 07:59:41;;;;;;;17.20;6.22;;;;;;;6.57;100.00;100016.09;4994414;28;20227;-81
2022/02/22 08:02:08;;;;;;;17.73;7.13;;;;;;;6.54;100.00;100018.03;4995195;28;20262;-83
2022/02/22 08:04:34;;;;;;;19.52;7.07;;;;;;;6.59;100.00;100018.72;4992099;28;20698;-81
2022/02/22 08:07:03;;;;;;;18.27;5.75;;;;;;;6.49;100.00;100018.19;4974681;28;20235;-81
2022/02/22 08:09:29;;;;;;;12.98;5.85;;;;;;;6.56;100.00;100032.22;4976643;28;20210;-84
2022/02/22 08:11:56;;;;;;;14.32;5.65;;;;;;;6.77;100.00;100038.63;4994695;28;20274;-82
2022/02/22 08:14:23;;;;;;;21.48;8.48;;;;;;;6.93;100.00;100045.16;4994359;28;20649;-83
2022/02/22 08:16:50;;;;;;;13.48;5.05;;;;;;;6.92;100.00;100042.53;4994644;28;20520;-83
2022/02/22 08:19:17;;;;;;;17.15;6.63;;;;;;;7.02;100.00;100042.16;4994276;28;20258;-81
2022/02/22 08:21:44;;;;;;;18.02;5.57;;;;;;;7.07;100.00;100028.59;4989722;28;20227;-82
2022/02/22 08:24:12;;;;;;;9.95;6.20;;;;;;;7.11;100.00;100027.56;4994473;28;20589;-82
2022/02/22 08:26:38;;;;;;;18.05;6.57;;;;;;;7.08;100.00;100035.72;4992837;28;20254;-82
2022/02/22 08:29:05;;;;;;;18.27;5.85;;;;;;;7.19;100.00;100027.25;4994624;28;20730;-85
2022/02/22 08:31:32;;;;;;;22.10;6.25;;;;;;;7.28;100.00;100019.78;4993921;28;20235;-85
2022/02/22 08:33:59;;;;;;;13.50;6.40;;;;;;;7.42;100.00;100032.63;4994535;28;20676;-85
2022/02/22 08:36:27;;;;;;;13.88;5.63;;;;;;;7.38;100.00;100025.63;4993686;28;20613;-84
2022/02/22 08:38:54;;;;;;;13.95;5.03;;;;;;;7.15;100.00;100029.19;4974505;28;20564;-83
2022/02/22 08:41:23;;;;;;;14.82;5.70;;;;;;;7.25;100.00;100035.94;4983751;28;20209;-83
2022/02/22 08:43:51;;;;;;;15.02;5.30;;;;;;;7.31;100.00;100026.81;4993489;28;20277;-83
2022/02/22 08:46:17;;;;;;;21.42;6.18;;;;;;;7.78;100.00;100029.47;4987438;28;20184;-82
2022/02/22 08:48:44;;;;;;;15.05;6.00;;;;;;;7.95;100.00;100023.41;4980289;28;20223;-82
2022/02/22 08:51:11;;;;;;;14.88;5.63;;;;;;;7.80;100.00;100024.00;4973960;28;20282;-81
2022/02/22 08:53:38;;;;;;;18.15;5.65;;;;;;;7.68;100.00;100023.56;4973998;28;20295;-81
2022/02/22 08:56:05;;;;;;;12.40;5.20;;;;;;;7.60;100.00;100025.69;4981810;28;20192;-82
2022/02/22 08:58:34;;;;;;;15.82;5.43;;;;;;;7.62;100.00;100025.59;4981357;28;20674;-82
2022/02/22 09:01:00;;;;;;;20.02;5.57;;;;;;;7.76;100.00;100025.09;4955403;29;20662;-84
2022/02/22 09:03:27;;;;;;;15.23;5.50;;;;;;;7.67;100.00;100029.00;4961169;28;20275;-85
2022/02/22 09:05:55;;;;;;;14.15;6.72;;;;;;;7.47;100.00;100029.78;4977425;28;20188;-85
2022/02/22 09:08:22;;;;;;;17.60;6.45;;;;;;;7.35;100.00;100032.91;4973595;28;20665;-84
2022/02/22 09:10:49;;;;;;;16.95;6.00;;;;;;;7.42;100.00;100037.13;4977607;28;20650;-83
2022/02/22 09:13:16;;;;;;;17.50;7.13;;;;;;;7.36;100.00;100021.28;4977034;28;20271;-81
2022/02/22 09:15:44;;;;;;;15.15;5.55;;;;;;;7.19;100.00;100028.16;4989292;28;20213;-82
2022/02/22 09:18:11;;;;;;;10.57;4.60;;;;;;;7.26;100.00;100032.34;4992874;28;20362;-84
2022/02/22 09:20:38;;;;;;;13.27;5.60;;;;;;;7.40;100.00;100029.13;4991935;28;20606;-83
2022/02/22 09:23:05;;;;;;;11.30;5.32;;;;;;;7.43;100.00;100039.72;4992738;28;20215;-83
2022/02/22 09:25:33;;;;;;;19.25;5.95;;;;;;;7.31;100.00;100040.19;4989651;28;20738;-84
2022/02/22 09:28:01;;;;;;;15.77;5.68;;;;;;;7.61;100.00;100022.06;4992876;28;20191;-84
2022/02/22 09:30:31;;;;;;;19.95;4.72;;;;;;;7.62;100.00;100018.47;4982667;28;20290;-84
2022/02/22 09:32:59;;;;;;;18.60;5.00;;;;;;;7.53;100.00;100013.47;4965527;28;20203;-85
2022/02/22 09:35:27;;;;;;;17.38;5.20;;;;;;;7.81;100.00;100023.09;4954086;29;20276;-84
2022/02/22 09:37:54;;;;;;;14.77;4.93;;;;;;;7.89;100.00;100023.63;4953465;29;20639;-84
2022/02/22 09:40:21;;;;;;;19.80;5.72;;;;;;;7.87;100.00;100004.97;4953699;29;20696;-84
2022/02/22 09:42:48;;;;;;;19.95;6.03;;;;;;;7.97;100.00;100012.63;4953728;29;20272;-83
2022/02/22 09:45:15;;;;;;;12.45;4.75;;;;;;;8.24;100.00;100014.16;4953055;29;20319;-83
2022/02/22 09:47:43;;;;;;;19.02;5.18;;;;;;;8.28;100.00;100009.53;4953893;29;20197;-84
2022/02/22 09:50:14;;;;;;;15.40;5.13;;;;;;;8.41;100.00;100005.44;4954024;29;20327;-84
2022/02/22 09:52:40;;;;;;;12.10;4.90;;;;;;;8.22;100.00;100001.75;4952498;29;20196;-84
2022/02/22 09:55:08;;;;;;;16.92;4.80;;;;;;;8.21;100.00;100010.72;4953034;29;20220;-83
2022/02/22 09:57:35;;;;;;;20.80;6.60;;;;;;;8.36;100.00;100004.72;4953563;29;20587;-83
2022/02/22 10:00:04;;;;;;;14.38;4.50;;;;;;;8.25;100.00;99996.25;4953568;29;20663;-84
2022/02/22 10:02:37;;;;;;;19.27;5.70;;;;;;;8.23;100.00;100017.78;4953956;29;20659;-85
2022/02/22 10:05:14;;;;;;;15.85;5.00;;;;;;;8.42;100.00;100003.63;4951863;28;20236;-85
2022/02/22 10:07:46;;;;;;;16.05;6.07;;;;;;;8.55;100.00;100000.34;4934335;29;20194;-84
2022/02/22 10:10:13;;;;;;;12.57;6.22;;;;;;;8.68;100.00;100002.47;4934193;29;20190;-84
2022/02/22 10:12:39;;;;;;;11.45;4.53;;;;;;;8.53;100.00;100002.22;4943175;28;20734;-84
2022/02/22 10:15:09;;;;;;;14.60;5.05;;;;;;;8.84;100.00;100010.72;4954161;28;20198;-83
2022/02/22 10:17:37;;;;;;;16.80;6.63;;;;;;;8.64;100.00;100006.22;4968017;28;20189;-83
2022/02/22 10:20:05;;;;;;;13.80;6.40;;;;;;;8.54;100.00;100005.75;4968048;28;20255;-83
2022/02/22 10:22:33;;;;;;;22.05;6.85;;;;;;;8.77;100.00;99996.69;4952879;29;20221;-82
2022/02/22 10:25:05;;;;;;;21.27;6.45;;;;;;;8.64;100.00;99998.19;4953070;29;20200;-83
2022/02/22 10:27:42;;;;;;;20.45;6.30;;;;;;;8.64;100.00;100004.44;4953283;29;20546;-83
2022/02/22 10:30:37;;;;;;;14.52;4.80;;;;;;;9.11;100.00;99996.06;4953959;28;20544;-84
2022/02/22 10:33:10;;;;;;;22.77;5.93;;;;;;;9.02;100.00;99995.59;4974875;28;20185;-84
2022/02/22 10:35:37;;;;;;;13.93;5.93;;;;;;;8.87;100.00;100006.09;4974833;28;20204;-83
2022/02/22 10:38:15;;;;;;;20.95;4.90;;;;;;;9.13;100.00;99993.31;4977066;28;20216;-84
2022/02/22 10:40:43;;;;;;;13.15;5.03;;;;;;;9.00;100.00;99992.13;4975807;28;20552;-83
2022/02/22 10:43:20;;;;;;;19.77;5.00;;;;;;;8.99;100.00;99977.81;4973943;28;20217;-82
2022/02/22 10:45:49;;;;;;;17.13;5.47;;;;;;;8.93;100.00;99981.66;4975175;28;20613;-82
2022/02/22 10:48:31;;;;;;;15.27;4.18;;;;;;;9.01;100.00;99980.44;4975477;28;20212;-83
2022/02/22 10:50:59;;;;;;;15.35;5.80;;;;;;;9.02;100.00;99976.81;4975454;28;20202;-85
2022/02/22 10:53:33;;;;;;;15.27;4.82;;;;;;;9.29;100.00;99982.72;4975161;28;20210;-84
2022/02/22 10:56:00;;;;;;;24.23;5.57;;;;;;;9.36;100.00;99968.03;4974415;28;20212;-82
2022/02/22 10:58:27;;;;;;;22.98;5.50;;;;;;;9.52;100.00;99974.44;4974054;28;20296;-83
2022/02/22 11:00:54;;;;;;;14.60;4.70;;;;;;;9.61;99.73;99970.47;4975493;28;20190;-83
2022/02/22 11:03:21;;;;;;;17.40;5.38;;;;;;;9.54;98.34;99964.50;4973405;28;20205;-82
2022/02/22 11:05:50;;;;;;;15.02;5.13;;;;;;;9.90;96.86;99950.19;4975217;28;20657;-83
2022/02/22 11:08:24;;;;;;;21.90;6.32;;;;;;;9.87;97.26;99946.78;4975591;28;20549;-82
2022/02/22 11:10:56;;;;;;;20.67;7.15;;;;;;;9.69;99.82;99959.31;4975572;28;20289;-82
2022/02/22 11:13:27;;;;;;;13.00;5.70;;;;;;;10.08;97.17;99956.47;4974958;28;20285;-81
2022/02/22 11:15:54;;;;;;;14.40;5.60;;;;;;;10.03;95.84;99945.06;4975171;28;20714;-84
2022/02/22 11:18:24;;;;;;;23.10;5.60;;;;;;;10.31;94.13;99957.13;4974817;28;20208;-82
2022/02/22 11:20:52;;;;;;;21.10;6.20;;;;;;;10.10;94.10;99959.94;4975037;28;20732;-84
2022/02/22 11:23:27;;;;;;;19.17;5.15;;;;;;;10.18;94.36;99955.06;4975598;28;20557;-84
2022/02/22 11:26:06;;;;;;;17.38;5.57;;;;;;;10.20;93.04;99969.31;4974742;28;20646;-84
2022/02/22 11:28:38;;;;;;;23.02;6.30;;;;;;;9.92;93.28;99972.50;4970830;28;20201;-82